Stallings, North Carolina
Current Conditions -  °F | °C
As of 2:53 AM on Friday 31 Oct 2014 (Local Time) from KEQY Reporting Station
Clear Clear  
Wind Chill: 42°   Ceiling: Unl
Heat Index: 46°   Visibility: 10mi
Dew Point: 37°   Wind: 7mph
Humidity: 71%   Direction: 50°NE
Pressure: 29.94"   Gusts: NA
Location:  35.082°N, 80.6782°W
Report Text: KEQY 310653Z AUTO 05006KT 10SM CLR 08/03 A2994 RMK AO2 SLP149 T00780028
Loading
Personal Weather Stations






























Interactive Weather Map
Tropical Storm Tracking
New forecast layout! Learn more

10-Day Weather Forecast

Advertisements
Track Severe Weather on mobile